createdAt,value
2022-10-19T00:03:23.229Z,3.20
2022-10-19T00:08:26.405Z,3.40
2022-10-19T00:13:29.358Z,3.88
2022-10-19T00:18:33.670Z,4.55
2022-10-19T00:23:36.878Z,2.83
2022-10-19T00:28:39.921Z,3.00
2022-10-19T00:33:47.571Z,2.83
2022-10-19T00:38:51.004Z,2.45
2022-10-19T00:44:00.206Z,2.72
2022-10-19T00:49:10.661Z,2.95
2022-10-19T00:54:14.990Z,2.25
2022-10-19T00:59:21.658Z,2.00
2022-10-19T01:04:28.022Z,2.15
2022-10-19T01:09:31.209Z,2.28
2022-10-19T01:14:44.328Z,2.75
2022-10-19T01:20:24.171Z,2.53
2022-10-19T01:25:40.700Z,2.05
2022-10-19T01:30:53.923Z,2.88
2022-10-19T01:36:07.317Z,2.58
2022-10-19T01:41:17.835Z,2.33
2022-10-19T01:46:27.348Z,2.63
2022-10-19T01:51:33.738Z,2.55
2022-10-19T01:56:38.779Z,2.83
2022-10-19T02:01:46.078Z,2.60
2022-10-19T02:06:49.354Z,2.78
2022-10-19T02:11:57.257Z,3.22
2022-10-19T02:17:06.362Z,3.25
2022-10-19T02:27:12.504Z,3.80
2022-10-19T02:32:16.884Z,3.53
2022-10-19T02:37:22.138Z,3.55
2022-10-19T02:42:31.406Z,3.58
2022-10-19T02:47:38.517Z,3.70
2022-10-19T02:52:42.140Z,3.95
2022-10-19T02:57:45.327Z,3.92
2022-10-19T03:02:49.646Z,3.80
2022-10-19T03:07:52.593Z,4.80
2022-10-19T03:12:57.999Z,3.30
2022-10-19T03:18:02.300Z,4.15
2022-10-19T03:23:05.239Z,5.40
2022-10-19T03:28:08.178Z,4.18
2022-10-19T03:33:12.523Z,4.20
2022-10-19T03:38:15.627Z,4.55
2022-10-19T03:43:18.708Z,4.97
2022-10-19T03:48:22.986Z,3.97
2022-10-19T03:53:26.326Z,4.18
2022-10-19T03:58:29.301Z,3.55
2022-10-19T04:03:33.597Z,4.60
2022-10-19T04:08:37.048Z,3.72
2022-10-19T04:13:40.014Z,5.18
2022-10-19T04:18:44.431Z,3.70
2022-10-19T04:23:47.399Z,4.32
2022-10-19T04:28:50.512Z,3.40
2022-10-19T04:33:55.242Z,4.85
2022-10-19T04:38:58.271Z,4.32
2022-10-19T04:44:02.900Z,3.65
2022-10-19T04:49:07.742Z,4.22
2022-10-19T04:54:10.676Z,4.15
2022-10-19T04:59:13.615Z,3.65
2022-10-19T05:04:19.669Z,2.90
2022-10-19T05:09:22.626Z,3.28
2022-10-19T05:14:25.760Z,3.20
2022-10-19T05:19:30.049Z,3.35
2022-10-19T05:24:33.230Z,3.10
2022-10-19T05:29:36.185Z,3.90
2022-10-19T05:34:40.641Z,3.35
2022-10-19T05:39:43.629Z,3.22
2022-10-19T05:44:46.579Z,4.30
2022-10-19T05:49:50.878Z,4.80
2022-10-19T05:54:54.072Z,4.63
2022-10-19T05:59:58.412Z,4.13
2022-10-19T06:05:02.831Z,3.88
2022-10-19T06:10:06.563Z,3.60
2022-10-19T06:15:10.214Z,2.90
2022-10-19T06:20:14.798Z,3.63
2022-10-19T06:25:20.236Z,3.63
2022-10-19T06:30:23.563Z,2.72
2022-10-19T06:35:28.092Z,3.33
2022-10-19T06:40:31.049Z,3.70
2022-10-19T06:45:35.981Z,3.22
2022-10-19T06:50:40.459Z,2.95
2022-10-19T06:55:43.380Z,3.10
2022-10-19T07:00:46.400Z,3.58
2022-10-19T07:05:55.753Z,4.15
2022-10-19T07:11:00.351Z,13.15
2022-10-19T07:16:06.779Z,4.32
2022-10-19T07:21:12.518Z,3.88
2022-10-19T07:26:17.486Z,3.85
2022-10-19T07:31:24.870Z,4.07
2022-10-19T07:36:30.475Z,3.47
2022-10-19T07:41:34.688Z,3.10
2022-10-19T07:46:38.631Z,3.80
2022-10-19T07:51:43.387Z,3.75
2022-10-19T07:56:46.332Z,3.35
2022-10-19T08:01:50.230Z,3.40
2022-10-19T08:06:54.557Z,3.05
2022-10-19T08:11:58.112Z,4.05
2022-10-19T08:17:01.648Z,3.13
2022-10-19T08:22:05.935Z,3.20
2022-10-19T08:27:09.578Z,3.53
2022-10-19T08:32:12.595Z,3.17
2022-10-19T08:37:26.391Z,3.45
2022-10-19T08:42:54.570Z,3.22
2022-10-19T08:48:04.326Z,3.85
2022-10-19T08:53:15.558Z,3.83
2022-10-19T08:58:31.941Z,3.53
2022-10-19T09:03:54.905Z,3.95
2022-10-19T09:09:01.060Z,3.78
2022-10-19T09:14:07.639Z,3.40
2022-10-19T09:19:16.474Z,3.50
2022-10-19T09:24:30.555Z,3.22
2022-10-19T09:29:40.044Z,3.55
2022-10-19T09:34:45.594Z,3.50
2022-10-19T09:39:54.791Z,3.80
2022-10-19T09:45:00.744Z,3.50
2022-10-19T09:50:18.649Z,3.47
2022-10-19T09:55:28.534Z,2.40
2022-10-19T10:00:37.911Z,2.83
2022-10-19T10:05:42.354Z,2.88
2022-10-19T10:10:49.313Z,3.00
2022-10-19T10:15:57.646Z,2.95
2022-10-19T10:21:07.048Z,2.70
2022-10-19T10:26:20.500Z,2.05
2022-10-19T10:31:27.453Z,2.25
2022-10-19T10:36:31.477Z,2.42
2022-10-19T10:41:41.421Z,2.90
2022-10-19T10:46:51.657Z,3.40
2022-10-19T10:51:58.514Z,3.40
2022-10-19T10:57:14.247Z,2.85
2022-10-19T11:02:28.513Z,3.35
2022-10-19T11:07:35.625Z,3.10
2022-10-19T11:12:46.298Z,2.65
2022-10-19T11:18:16.676Z,2.75
2022-10-19T11:23:27.752Z,2.40
2022-10-19T11:28:48.255Z,2.13
2022-10-19T11:33:57.871Z,2.05
2022-10-19T11:39:17.140Z,2.47
2022-10-19T11:44:34.466Z,2.17
2022-10-19T11:49:51.493Z,1.83
2022-10-19T11:55:03.525Z,2.05
2022-10-19T12:00:15.387Z,2.13
2022-10-19T12:05:35.466Z,2.35
2022-10-19T12:15:48.518Z,1.88
2022-10-19T12:20:55.305Z,2.20
2022-10-19T12:26:00.237Z,3.42
2022-10-19T12:31:06.772Z,2.00
2022-10-19T12:36:23.266Z,2.00
2022-10-19T12:41:32.390Z,2.35
2022-10-19T12:46:42.477Z,1.83
2022-10-19T12:51:47.031Z,2.40
2022-10-19T12:56:53.477Z,2.03
2022-10-19T13:01:58.872Z,1.65
2022-10-19T13:07:03.827Z,1.83
2022-10-19T13:12:44.099Z,2.00
2022-10-19T13:17:50.982Z,1.73
2022-10-19T13:23:32.533Z,1.77
2022-10-19T13:28:40.243Z,1.92
2022-10-19T13:33:50.870Z,1.88
2022-10-19T13:39:12.662Z,1.65
2022-10-19T13:44:25.050Z,2.00
2022-10-19T13:49:53.083Z,1.65
2022-10-19T13:55:25.011Z,1.77
2022-10-19T14:00:36.282Z,2.05
2022-10-19T14:05:55.534Z,1.70
2022-10-19T14:11:03.417Z,1.98
2022-10-19T14:16:10.410Z,2.33
2022-10-19T14:21:13.407Z,1.67
2022-10-19T14:26:24.066Z,1.38
2022-10-19T14:31:34.859Z,1.60
2022-10-19T14:36:40.734Z,2.10
2022-10-19T14:41:44.083Z,1.70
2022-10-19T14:46:49.977Z,1.65
2022-10-19T14:51:57.403Z,2.35
2022-10-19T14:57:03.262Z,1.90
2022-10-19T15:02:18.172Z,2.20
2022-10-19T15:07:25.381Z,1.85
2022-10-19T15:12:32.507Z,1.98
2022-10-19T15:17:47.716Z,2.50
2022-10-19T15:22:50.915Z,1.67
2022-10-19T15:27:54.306Z,2.00
2022-10-19T15:33:14.031Z,1.60
2022-10-19T15:38:22.702Z,1.85
2022-10-19T15:43:37.687Z,1.90
2022-10-19T15:48:52.282Z,1.67
2022-10-19T15:53:59.774Z,3.60
2022-10-19T15:59:05.330Z,1.70
2022-10-19T16:04:10.394Z,1.88
2022-10-19T16:09:20.593Z,1.73
2022-10-19T16:14:23.608Z,1.73
2022-10-19T16:19:27.979Z,1.50
2022-10-19T16:24:30.927Z,1.70
2022-10-19T16:29:34.001Z,1.75
2022-10-19T16:34:38.286Z,2.03
2022-10-19T16:39:41.319Z,1.80
2022-10-19T16:44:45.135Z,2.00
2022-10-19T16:49:49.439Z,2.10
2022-10-19T16:54:52.424Z,1.73
2022-10-19T16:59:55.592Z,2.08
2022-10-19T17:04:59.889Z,2.75
2022-10-19T17:10:02.970Z,2.08
2022-10-19T17:15:37.165Z,2.15
2022-10-19T17:20:32.889Z,2.38
2022-10-19T17:25:35.841Z,2.67
2022-10-19T17:30:42.165Z,3.75
2022-10-19T17:35:46.821Z,3.58
2022-10-19T17:40:50.031Z,2.42
2022-10-19T17:45:59.158Z,3.40
2022-10-19T17:51:05.887Z,3.20
2022-10-19T17:56:09.953Z,2.90
2022-10-19T18:01:13.668Z,2.90
2022-10-19T18:06:20.666Z,3.15
2022-10-19T18:11:25.679Z,3.70
2022-10-19T18:16:30.594Z,3.47
2022-10-19T18:21:38.776Z,3.25
2022-10-19T18:26:41.771Z,3.35
2022-10-19T18:31:44.843Z,3.28
2022-10-19T18:36:50.187Z,3.53
2022-10-19T18:41:54.574Z,3.67
2022-10-19T18:46:58.157Z,3.30
2022-10-19T18:52:02.450Z,3.63
2022-10-19T18:57:05.417Z,3.85
2022-10-19T19:02:13.737Z,3.65
2022-10-19T19:07:27.010Z,3.85
2022-10-19T19:12:31.116Z,3.70
2022-10-19T19:17:34.061Z,4.70
2022-10-19T19:22:38.507Z,5.13
2022-10-19T19:27:41.623Z,4.28
2022-10-19T19:32:44.791Z,4.10
2022-10-19T19:37:49.068Z,4.10
2022-10-19T19:42:52.015Z,4.07
2022-10-19T19:47:54.960Z,3.33
2022-10-19T19:58:02.562Z,4.57
2022-10-19T20:03:05.660Z,4.68
2022-10-19T20:08:10.291Z,4.40
2022-10-19T20:13:13.327Z,3.85
2022-10-19T20:18:16.269Z,3.88
2022-10-19T20:28:23.389Z,4.32
2022-10-19T20:33:26.353Z,4.50
2022-10-19T20:38:30.642Z,4.88
2022-10-19T20:43:34.205Z,3.70
2022-10-19T20:48:37.164Z,4.22
2022-10-19T20:58:45.175Z,3.42
2022-10-19T21:03:50.854Z,4.95
2022-10-19T21:08:55.379Z,3.95
2022-10-19T21:13:59.757Z,4.05
2022-10-19T21:19:03.818Z,4.53
2022-10-19T21:24:11.616Z,3.67
2022-10-19T21:29:16.530Z,5.00
2022-10-19T21:34:21.114Z,4.15
2022-10-19T21:39:25.841Z,4.05
2022-10-19T21:44:28.770Z,4.05
2022-10-19T21:49:31.698Z,4.43
2022-10-19T21:54:36.027Z,3.55
2022-10-19T21:59:39.223Z,4.00
2022-10-19T22:04:42.181Z,3.80
2022-10-19T22:09:46.631Z,3.70
2022-10-19T22:14:49.608Z,3.45
2022-10-19T22:19:52.582Z,4.13
2022-10-19T22:24:56.887Z,4.03
2022-10-19T22:29:59.839Z,3.83
2022-10-19T22:35:02.808Z,3.97
2022-10-19T22:40:08.289Z,4.10
2022-10-19T22:45:11.187Z,4.57
2022-10-19T22:50:14.089Z,5.03
2022-10-19T22:55:18.507Z,4.13
2022-10-19T23:00:21.454Z,4.38
2022-10-19T23:05:24.771Z,4.25
2022-10-19T23:10:29.064Z,4.07
2022-10-19T23:15:31.959Z,3.10
2022-10-19T23:20:34.887Z,4.13
2022-10-19T23:25:39.139Z,3.85
2022-10-19T23:30:42.017Z,3.67
2022-10-19T23:35:44.925Z,3.13
2022-10-19T23:40:49.359Z,3.83
2022-10-19T23:45:52.351Z,3.22
2022-10-19T23:51:00.197Z,3.95
2022-10-19T23:56:07.337Z,4.45
